createdAt,value
2019-04-04T00:01:39.674Z,19.20
2019-04-04T00:04:10.053Z,15.30
2019-04-04T00:06:40.550Z,15.23
2019-04-04T00:09:11.231Z,14.83
2019-04-04T00:11:41.632Z,15.80
2019-04-04T00:14:14.778Z,15.30
2019-04-04T00:16:51.735Z,18.70
2019-04-04T00:19:29.932Z,20.97
2019-04-04T00:22:01.056Z,18.73
2019-04-04T00:24:31.476Z,17.87
2019-04-04T00:27:01.856Z,17.17
2019-04-04T00:29:32.307Z,23.63
2019-04-04T00:32:02.684Z,25.67
2019-04-04T00:34:33.109Z,22.73
2019-04-04T00:37:04.775Z,24.30
2019-04-04T00:39:35.744Z,29.23
2019-04-04T00:42:06.157Z,23.73
2019-04-04T00:44:36.579Z,24.53
2019-04-04T00:47:06.953Z,134.90
2019-04-04T00:49:37.336Z,177.70
2019-04-04T00:52:09.932Z,31.63
2019-04-04T00:54:39.895Z,26.80
2019-04-04T00:57:10.367Z,66.07
2019-04-04T00:59:40.740Z,23.23
2019-04-04T01:02:11.224Z,28.93
2019-04-04T01:04:41.649Z,22.17
2019-04-04T01:07:12.256Z,25.00
2019-04-04T01:09:45.875Z,27.33
2019-04-04T01:12:17.706Z,24.00
2019-04-04T01:14:48.090Z,29.70
2019-04-04T01:17:18.512Z,37.97
2019-04-04T01:19:49.775Z,54.17
2019-04-04T01:22:20.356Z,52.87
2019-04-04T01:24:50.727Z,71.93
2019-04-04T01:27:21.150Z,65.87
2019-04-04T01:29:51.529Z,49.53
2019-04-04T01:32:21.951Z,44.03
2019-04-04T01:34:52.763Z,40.53
2019-04-04T01:37:25.173Z,36.53
2019-04-04T01:39:55.563Z,34.10
2019-04-04T01:42:26.066Z,33.10
2019-04-04T01:44:56.499Z,33.03
2019-04-04T01:47:26.996Z,28.27
2019-04-04T01:49:57.426Z,40.63
2019-04-04T01:52:28.606Z,25.67
2019-04-04T01:55:03.018Z,39.63
2019-04-04T01:57:31.629Z,29.60
2019-04-04T02:00:02.042Z,31.67
2019-04-04T02:02:32.499Z,28.53
2019-04-04T02:05:02.991Z,29.90
2019-04-04T02:07:33.388Z,32.63
2019-04-04T02:10:05.477Z,34.57
2019-04-04T02:12:38.582Z,36.20
2019-04-04T02:15:13.807Z,39.80
2019-04-04T02:17:42.740Z,31.77
2019-04-04T02:20:13.219Z,32.80
2019-04-04T02:22:43.611Z,34.17
2019-04-04T02:25:14.234Z,35.27
2019-04-04T02:27:44.662Z,33.90
2019-04-04T02:30:16.354Z,34.70
2019-04-04T02:32:47.192Z,52.97
2019-04-04T02:35:17.632Z,31.20
2019-04-04T02:37:48.012Z,32.07
2019-04-04T02:40:18.594Z,36.30
2019-04-04T02:42:49.005Z,35.80
2019-04-04T02:45:19.515Z,31.53
2019-04-04T02:47:51.264Z,30.53
2019-04-04T02:50:21.992Z,34.67
2019-04-04T02:52:52.363Z,34.77
2019-04-04T02:55:22.781Z,33.90
2019-04-04T02:57:53.154Z,43.23
2019-04-04T03:00:26.283Z,33.73
2019-04-04T03:02:55.692Z,49.27
2019-04-04T03:05:26.224Z,61.57
2019-04-04T03:07:56.587Z,63.93
2019-04-04T03:10:27.217Z,53.97
2019-04-04T03:12:58.648Z,57.77
2019-04-04T03:15:29.724Z,56.43
2019-04-04T03:18:04.175Z,54.33
2019-04-04T03:20:32.324Z,52.50
2019-04-04T03:23:02.702Z,49.00
2019-04-04T03:25:33.301Z,51.43
2019-04-04T03:28:03.830Z,59.75
2019-04-04T03:30:34.335Z,57.03
2019-04-04T03:33:05.890Z,53.93
2019-04-04T03:35:36.217Z,48.90
2019-04-04T03:38:06.675Z,57.53
2019-04-04T03:40:37.092Z,57.80
2019-04-04T03:43:07.562Z,47.07
2019-04-04T03:46:00.167Z,50.70
2019-04-04T03:48:31.894Z,41.37
2019-04-04T03:51:04.639Z,40.10
2019-04-04T03:53:34.462Z,36.93
2019-04-04T03:56:04.896Z,42.27
2019-04-04T03:58:36.026Z,51.23
2019-04-04T04:01:06.443Z,37.33
2019-04-04T04:03:36.908Z,39.83
2019-04-04T04:06:08.988Z,48.47
2019-04-04T04:08:39.298Z,41.67
2019-04-04T04:11:09.809Z,43.37
2019-04-04T04:13:40.216Z,51.60
2019-04-04T04:16:11.052Z,49.17
2019-04-04T04:18:41.555Z,52.93
2019-04-04T04:21:12.079Z,53.23
2019-04-04T04:23:42.798Z,53.10
2019-04-04T04:28:14.594Z,52.53
2019-04-04T04:29:22.294Z,50.17
2019-04-04T04:32:06.559Z,56.90
2019-04-04T04:34:38.760Z,50.80
2019-04-04T04:37:11.159Z,53.43
2019-04-04T04:39:41.546Z,53.67
2019-04-04T04:42:21.503Z,49.33
2019-04-04T04:44:52.434Z,48.73
2019-04-04T04:47:27.108Z,49.63
2019-04-04T04:50:00.776Z,47.63
2019-04-04T04:52:47.974Z,52.50
2019-04-04T04:55:28.889Z,41.80
2019-04-04T04:58:00.151Z,42.63
2019-04-04T05:00:30.636Z,52.40
2019-04-04T05:03:01.440Z,57.90
2019-04-04T05:05:33.578Z,64.37
2019-04-04T05:08:06.073Z,58.27
2019-04-04T05:10:39.336Z,48.17
2019-04-04T05:13:14.505Z,53.53
2019-04-04T05:15:46.453Z,53.03
2019-04-04T05:18:18.377Z,45.63
2019-04-04T05:20:48.807Z,45.63
2019-04-04T05:23:28.190Z,61.00
2019-04-04T05:26:02.336Z,50.80
2019-04-04T05:28:35.827Z,49.07
2019-04-04T05:31:07.345Z,46.63
2019-04-04T05:33:46.640Z,51.70
2019-04-04T05:36:21.319Z,50.10
2019-04-04T05:38:56.262Z,48.60
2019-04-04T05:41:27.368Z,49.00
2019-04-04T05:43:58.559Z,48.67
2019-04-04T05:46:32.783Z,50.80
2019-04-04T05:49:07.841Z,43.95
2019-04-04T05:51:37.365Z,47.23
2019-04-04T05:54:08.395Z,48.95
2019-04-04T05:56:39.369Z,50.50
2019-04-04T05:59:09.879Z,41.65
2019-04-04T06:01:49.348Z,44.48
2019-04-04T06:04:20.263Z,44.45
2019-04-04T06:06:50.819Z,43.28
2019-04-04T06:09:21.199Z,45.48
2019-04-04T06:11:55.733Z,40.25
2019-04-04T06:14:30.682Z,47.00
2019-04-04T06:17:01.182Z,45.08
2019-04-04T06:19:36.013Z,47.30
2019-04-04T06:22:06.496Z,43.30
2019-04-04T06:24:37.111Z,52.20
2019-04-04T06:27:09.131Z,55.43
2019-04-04T06:29:39.823Z,38.30
2019-04-04T06:32:10.209Z,36.47
2019-04-04T06:34:44.953Z,38.10
2019-04-04T06:37:18.058Z,38.53
2019-04-04T06:39:54.184Z,34.30
2019-04-04T06:42:24.603Z,34.70
2019-04-04T06:44:58.625Z,35.50
2019-04-04T06:47:32.369Z,31.23
2019-04-04T06:50:02.350Z,34.03
2019-04-04T06:52:32.701Z,32.73
2019-04-04T06:55:03.117Z,37.17
2019-04-04T06:57:34.209Z,37.70
2019-04-04T07:00:09.851Z,33.00
2019-04-04T07:02:40.332Z,26.10
2019-04-04T07:05:11.044Z,34.87
2019-04-04T07:07:43.849Z,34.20
2019-04-04T07:10:13.956Z,35.45
2019-04-04T07:12:44.964Z,29.37
2019-04-04T07:15:15.900Z,32.30
2019-04-04T07:17:46.943Z,28.23
2019-04-04T07:20:17.576Z,26.83
2019-04-04T07:22:49.500Z,28.37
2019-04-04T07:25:20.142Z,26.50
2019-04-04T07:27:50.507Z,28.60
2019-04-04T07:30:22.699Z,27.97
2019-04-04T07:32:53.080Z,28.17
2019-04-04T07:35:23.587Z,29.80
2019-04-04T07:37:57.250Z,24.90
2019-04-04T07:40:26.095Z,26.43
2019-04-04T07:42:56.491Z,23.13
2019-04-04T07:45:27.039Z,22.77
2019-04-04T07:47:57.530Z,24.77
2019-04-04T07:50:28.758Z,21.20
2019-04-04T07:53:04.053Z,23.47
2019-04-04T07:55:34.171Z,22.53
2019-04-04T07:58:15.537Z,22.57
2019-04-04T08:00:47.524Z,20.07
2019-04-04T08:03:20.419Z,16.60
2019-04-04T08:05:50.846Z,19.87
2019-04-04T08:08:21.266Z,22.37
2019-04-04T08:10:52.175Z,26.87
2019-04-04T08:13:27.963Z,18.53
2019-04-04T08:15:58.322Z,23.73
2019-04-04T08:18:28.852Z,20.67
2019-04-04T08:21:00.149Z,22.25
2019-04-04T08:23:33.164Z,23.90
2019-04-04T08:26:03.594Z,21.77
2019-04-04T08:28:33.963Z,13.30
2019-04-04T08:31:04.388Z,16.13
2019-04-04T08:33:35.972Z,13.67
2019-04-04T08:36:06.744Z,16.20
2019-04-04T08:38:37.290Z,13.70
2019-04-04T08:41:07.728Z,13.00
2019-04-04T08:43:38.130Z,8.67
2019-04-04T08:46:08.565Z,9.47
2019-04-04T08:48:38.984Z,9.30
2019-04-04T08:51:09.453Z,8.43
2019-04-04T08:53:40.593Z,7.20
2019-04-04T08:56:11.420Z,6.57
2019-04-04T08:58:41.813Z,7.17
2019-04-04T09:01:12.380Z,7.73
2019-04-04T09:03:44.491Z,4.53
2019-04-04T09:06:14.908Z,6.07
2019-04-04T09:08:45.380Z,7.90
2019-04-04T09:11:15.770Z,10.10
2019-04-04T09:13:46.141Z,8.67
2019-04-04T09:16:16.598Z,11.73
2019-04-04T09:18:47.000Z,14.50
2019-04-04T09:21:17.407Z,12.70
2019-04-04T09:23:47.806Z,14.33
2019-04-04T09:26:18.223Z,11.27
2019-04-04T09:28:48.641Z,13.37
2019-04-04T09:31:19.163Z,13.18
2019-04-04T09:33:49.556Z,13.83
2019-04-04T09:36:19.986Z,11.83
2019-04-04T09:38:50.368Z,19.57
2019-04-04T09:41:20.836Z,14.33
2019-04-04T09:43:51.364Z,15.00
2019-04-04T09:46:21.881Z,14.67
2019-04-04T09:48:52.302Z,14.00
2019-04-04T09:51:22.702Z,16.83
2019-04-04T09:53:53.623Z,12.67
2019-04-04T09:56:24.478Z,15.30
2019-04-04T09:58:55.221Z,14.33
2019-04-04T10:01:25.926Z,12.50
2019-04-04T10:03:56.373Z,19.13
2019-04-04T10:06:26.758Z,12.98
2019-04-04T10:08:57.226Z,16.47
2019-04-04T10:11:27.604Z,16.90
2019-04-04T10:13:58.061Z,13.93
2019-04-04T10:16:28.574Z,13.30
2019-04-04T10:18:58.974Z,15.80
2019-04-04T10:21:29.391Z,15.87
2019-04-04T10:23:59.780Z,17.17
2019-04-04T10:26:30.181Z,15.40
2019-04-04T10:29:00.603Z,16.17
2019-04-04T10:31:31.471Z,18.90
2019-04-04T10:34:03.033Z,13.77
2019-04-04T10:36:37.912Z,14.33
2019-04-04T10:39:12.891Z,15.83
2019-04-04T10:41:45.429Z,12.90
2019-04-04T10:44:15.520Z,13.77
2019-04-04T10:46:45.987Z,17.33
2019-04-04T10:49:16.343Z,12.57
2019-04-04T10:51:47.940Z,13.00
2019-04-04T10:54:18.313Z,13.77
2019-04-04T10:56:48.781Z,16.67
2019-04-04T10:59:19.235Z,15.70
2019-04-04T11:01:49.668Z,14.63
2019-04-04T11:04:21.779Z,14.23
2019-04-04T11:06:52.169Z,16.40
2019-04-04T11:09:25.417Z,14.67
2019-04-04T11:11:55.860Z,16.63
2019-04-04T11:14:26.354Z,15.07
2019-04-04T11:16:56.831Z,15.90
2019-04-04T11:19:31.465Z,15.40
2019-04-04T11:21:59.348Z,14.47
2019-04-04T11:24:34.508Z,15.97
2019-04-04T11:27:07.878Z,23.50
2019-04-04T11:29:38.257Z,16.60
2019-04-04T11:32:08.837Z,17.63
2019-04-04T11:34:39.254Z,14.97
2019-04-04T11:37:13.744Z,17.60
2019-04-04T11:39:54.050Z,15.40
2019-04-04T11:42:16.273Z,17.03
2019-04-04T11:44:46.843Z,14.23
2019-04-04T11:47:17.334Z,26.57
2019-04-04T11:49:47.978Z,16.53
2019-04-04T11:52:18.509Z,14.27
2019-04-04T11:55:01.095Z,14.40
2019-04-04T11:57:31.909Z,14.43
2019-04-04T12:00:03.842Z,13.27
2019-04-04T12:02:37.487Z,17.73
2019-04-04T12:05:09.092Z,12.33
2019-04-04T12:07:39.521Z,17.00
2019-04-04T12:10:10.303Z,13.23
2019-04-04T12:12:40.786Z,11.90
2019-04-04T12:15:11.467Z,13.17
2019-04-04T12:17:41.979Z,14.70
2019-04-04T12:20:13.051Z,10.77
2019-04-04T12:22:45.000Z,12.05
2019-04-04T12:25:15.596Z,12.97
2019-04-04T12:27:49.076Z,12.90
2019-04-04T12:30:20.886Z,10.83
2019-04-04T12:32:51.568Z,17.03
2019-04-04T12:35:21.970Z,11.60
2019-04-04T12:37:52.430Z,12.53
2019-04-04T12:40:27.152Z,10.60
2019-04-04T12:43:03.263Z,13.83
2019-04-04T12:45:33.672Z,13.47
2019-04-04T12:48:04.174Z,14.60
2019-04-04T12:50:34.604Z,9.13
2019-04-04T12:53:10.276Z,11.03
2019-04-04T12:55:40.703Z,10.23
2019-04-04T12:58:11.106Z,13.50
2019-04-04T13:00:43.063Z,13.20
2019-04-04T13:03:15.090Z,12.30
2019-04-04T13:05:45.501Z,14.67
2019-04-04T13:08:15.913Z,13.50
2019-04-04T13:10:51.888Z,17.13
2019-04-04T13:13:22.369Z,15.07
2019-04-04T13:15:52.817Z,14.67
2019-04-04T13:18:23.278Z,11.27
2019-04-04T13:20:53.709Z,14.63
2019-04-04T13:23:24.093Z,12.70
2019-04-04T13:25:54.562Z,14.83
2019-04-04T13:28:26.564Z,15.53
2019-04-04T13:30:56.988Z,13.63
2019-04-04T13:33:28.787Z,16.27
2019-04-04T13:35:59.267Z,16.63
2019-04-04T13:38:29.754Z,16.17
2019-04-04T13:41:00.182Z,11.60
2019-04-04T13:43:30.630Z,11.27
2019-04-04T13:46:01.050Z,12.77
2019-04-04T13:48:31.594Z,15.27
2019-04-04T13:51:03.731Z,11.37
2019-04-04T13:53:34.157Z,18.13
2019-04-04T13:56:06.073Z,13.17
2019-04-04T13:58:39.564Z,15.83
2019-04-04T14:01:09.905Z,14.73
2019-04-04T14:03:40.355Z,13.97
2019-04-04T14:06:11.623Z,11.67
2019-04-04T14:08:42.533Z,14.17
2019-04-04T14:11:13.037Z,16.57
2019-04-04T14:13:48.695Z,15.77
2019-04-04T14:16:18.171Z,15.37
2019-04-04T14:18:48.695Z,18.53
2019-04-04T14:21:25.170Z,17.33
2019-04-04T14:23:57.036Z,14.50
2019-04-04T14:26:29.289Z,12.53
2019-04-04T14:29:03.633Z,12.10
2019-04-04T14:31:34.981Z,11.47
2019-04-04T14:34:06.664Z,13.70
2019-04-04T14:36:37.122Z,11.23
2019-04-04T14:39:09.632Z,19.30
2019-04-04T14:41:40.245Z,13.30
2019-04-04T14:44:15.497Z,15.83
2019-04-04T14:46:45.601Z,15.43
2019-04-04T14:49:16.416Z,15.87
2019-04-04T14:51:46.975Z,12.83
2019-04-04T14:54:17.383Z,18.23
2019-04-04T14:56:47.964Z,14.87
2019-04-04T14:59:18.393Z,16.80
2019-04-04T15:01:48.905Z,15.57
2019-04-04T15:04:20.297Z,17.50
2019-04-04T15:06:50.825Z,14.60
2019-04-04T15:09:21.205Z,19.40
2019-04-04T15:11:51.750Z,12.70
2019-04-04T15:14:22.152Z,12.53
2019-04-04T15:16:59.420Z,16.50
2019-04-04T15:19:29.888Z,14.93
2019-04-04T15:22:04.270Z,15.33
2019-04-04T15:24:34.669Z,14.07
2019-04-04T15:27:06.327Z,18.23
2019-04-04T15:29:36.739Z,16.20
2019-04-04T15:32:07.156Z,18.07
2019-04-04T15:34:37.773Z,16.73
2019-04-04T15:37:08.330Z,17.92
2019-04-04T15:39:38.805Z,17.60
2019-04-04T15:42:09.250Z,17.37
2019-04-04T15:44:39.631Z,20.10
2019-04-04T15:47:10.156Z,18.07
2019-04-04T15:49:40.696Z,16.20
2019-04-04T15:52:11.122Z,15.20
2019-04-04T15:54:41.665Z,18.90
2019-04-04T15:57:12.081Z,21.83
2019-04-04T15:59:42.521Z,21.13
2019-04-04T16:02:13.089Z,21.37
2019-04-04T16:04:44.615Z,16.57
2019-04-04T16:07:15.047Z,21.60
2019-04-04T16:09:45.445Z,16.90
2019-04-04T16:12:15.871Z,22.97
2019-04-04T16:14:46.378Z,22.30
2019-04-04T16:17:16.843Z,26.57
2019-04-04T16:19:47.319Z,25.57
2019-04-04T16:22:17.955Z,24.47
2019-04-04T16:24:49.166Z,25.03
2019-04-04T16:27:19.780Z,24.17
2019-04-04T16:29:50.481Z,27.47
2019-04-04T16:32:24.593Z,30.20
2019-04-04T16:34:55.561Z,34.47
2019-04-04T16:37:26.171Z,34.87
2019-04-04T16:40:08.286Z,41.40
2019-04-04T16:42:28.683Z,43.15
2019-04-04T16:45:03.517Z,40.23
2019-04-04T16:47:33.939Z,34.97
2019-04-04T16:50:06.631Z,32.37
2019-04-04T16:52:37.041Z,31.67
2019-04-04T16:55:08.799Z,38.97
2019-04-04T16:57:39.153Z,31.90
2019-04-04T17:00:12.349Z,39.07
2019-04-04T17:02:42.797Z,39.77
2019-04-04T17:05:13.753Z,39.93
2019-04-04T17:07:44.156Z,38.67
2019-04-04T17:10:14.939Z,46.53
2019-04-04T17:12:45.334Z,59.60
2019-04-04T17:15:16.906Z,50.87
2019-04-04T17:17:47.324Z,45.77
2019-04-04T17:20:20.981Z,50.63
2019-04-04T17:22:52.953Z,57.50
2019-04-04T17:25:23.725Z,44.23
2019-04-04T17:27:54.165Z,50.53
2019-04-04T17:30:24.669Z,53.33
2019-04-04T17:32:55.524Z,53.17
2019-04-04T17:35:26.798Z,52.77
2019-04-04T17:37:57.727Z,51.33
2019-04-04T17:40:28.461Z,54.83
2019-04-04T17:42:58.925Z,72.47
2019-04-04T17:45:29.470Z,58.00
2019-04-04T17:48:00.300Z,66.60
2019-04-04T17:50:33.405Z,56.23
2019-04-04T17:53:04.177Z,53.13
2019-04-04T17:55:35.618Z,66.70
2019-04-04T17:58:13.796Z,55.07
2019-04-04T18:00:45.680Z,54.80
2019-04-04T18:03:16.135Z,49.93
2019-04-04T18:05:46.739Z,58.20
2019-04-04T18:08:25.035Z,58.87
2019-04-04T18:10:55.713Z,53.87
2019-04-04T18:13:26.108Z,52.70
2019-04-04T18:15:57.701Z,52.70
2019-04-04T18:18:28.276Z,48.67
2019-04-04T18:20:58.864Z,52.10
2019-04-04T18:23:29.351Z,51.17
2019-04-04T18:26:02.928Z,45.53
2019-04-04T18:28:33.370Z,43.97
2019-04-04T18:31:03.820Z,43.83
2019-04-04T18:33:34.435Z,46.83
2019-04-04T18:36:04.989Z,48.10
2019-04-04T18:38:38.211Z,36.63
2019-04-04T18:41:11.178Z,47.00
2019-04-04T18:43:41.571Z,61.63
2019-04-04T18:46:13.709Z,56.07
2019-04-04T18:48:47.274Z,52.73
2019-04-04T18:51:18.438Z,45.07
2019-04-04T18:53:48.825Z,47.97
2019-04-04T18:56:19.240Z,66.47
2019-04-04T18:58:49.675Z,57.50
2019-04-04T19:01:20.070Z,61.50
2019-04-04T19:03:50.536Z,63.40
2019-04-04T19:06:20.836Z,67.27
2019-04-04T19:08:51.275Z,86.10
2019-04-04T19:11:21.657Z,81.10
2019-04-04T19:13:52.012Z,64.57
2019-04-04T19:16:22.494Z,73.63
2019-04-04T19:18:53.003Z,68.90
2019-04-04T19:21:25.077Z,69.37
2019-04-04T19:23:56.969Z,72.17
2019-04-04T19:26:27.401Z,72.33
2019-04-04T19:28:57.779Z,67.17
2019-04-04T19:31:28.442Z,70.80
2019-04-04T19:33:58.880Z,80.40
2019-04-04T19:36:29.509Z,94.07
2019-04-04T19:38:59.940Z,92.57
2019-04-04T19:41:30.383Z,90.17
2019-04-04T19:44:00.776Z,95.23
2019-04-04T19:46:37.339Z,93.70
2019-04-04T19:49:05.226Z,86.90
2019-04-04T19:51:35.601Z,81.10
2019-04-04T19:54:06.012Z,91.40
2019-04-04T19:56:36.459Z,87.80
2019-04-04T19:59:06.819Z,76.83
2019-04-04T20:01:37.285Z,95.00
2019-04-04T20:04:07.699Z,98.80
2019-04-04T20:06:38.111Z,82.13
2019-04-04T20:09:08.651Z,93.00
2019-04-04T20:11:39.023Z,84.03
2019-04-04T20:14:09.406Z,95.37
2019-04-04T20:16:39.851Z,91.40
2019-04-04T20:19:10.245Z,83.97
2019-04-04T20:21:40.666Z,82.20
2019-04-04T20:24:11.075Z,81.83
2019-04-04T20:26:41.472Z,82.97
2019-04-04T20:29:11.886Z,85.33
2019-04-04T20:31:43.238Z,79.80
2019-04-04T20:34:13.679Z,82.23
2019-04-04T20:36:44.122Z,77.60
2019-04-04T20:39:14.625Z,84.27
2019-04-04T20:41:45.012Z,82.10
2019-04-04T20:44:15.447Z,87.03
2019-04-04T20:46:45.830Z,94.33
2019-04-04T20:49:16.250Z,102.03
2019-04-04T20:51:46.640Z,88.97
2019-04-04T20:54:17.059Z,97.93
2019-04-04T20:56:47.459Z,102.20
2019-04-04T20:59:17.885Z,91.20
2019-04-04T21:01:48.265Z,88.87
2019-04-04T21:04:18.727Z,99.97
2019-04-04T21:06:49.144Z,102.90
2019-04-04T21:09:19.541Z,89.53
2019-04-04T21:11:49.957Z,104.60
2019-04-04T21:14:20.407Z,112.00
2019-04-04T21:16:50.868Z,115.97
2019-04-04T21:19:21.267Z,113.47
2019-04-04T21:21:51.661Z,108.77
2019-04-04T21:24:22.146Z,125.37
2019-04-04T21:26:52.529Z,80.27
2019-04-04T21:29:22.914Z,112.97
2019-04-04T21:31:53.416Z,135.00
2019-04-04T21:34:23.854Z,106.47
2019-04-04T21:36:54.395Z,122.20
2019-04-04T21:39:24.773Z,126.90
2019-04-04T21:41:55.208Z,109.80
2019-04-04T21:44:25.553Z,117.70
2019-04-04T21:46:55.999Z,109.93
2019-04-04T21:49:29.612Z,119.37
2019-04-04T21:51:59.955Z,115.83
2019-04-04T21:54:30.305Z,125.37
2019-04-04T21:57:00.698Z,113.27
2019-04-04T21:59:31.125Z,103.33
2019-04-04T22:02:02.883Z,103.23
2019-04-04T22:04:33.331Z,112.60
2019-04-04T22:07:03.832Z,100.50
2019-04-04T22:09:34.197Z,97.47
2019-04-04T22:12:04.799Z,101.40
2019-04-04T22:14:35.147Z,83.13
2019-04-04T22:17:05.545Z,89.40
2019-04-04T22:19:35.947Z,87.90
2019-04-04T22:22:06.335Z,95.37
2019-04-04T22:24:36.724Z,83.60
2019-04-04T22:27:07.194Z,86.87
2019-04-04T22:29:37.559Z,93.10
2019-04-04T22:32:07.940Z,79.20
2019-04-04T22:34:38.332Z,75.33
2019-04-04T22:37:08.841Z,85.00
2019-04-04T22:39:39.235Z,83.37
2019-04-04T22:42:09.688Z,76.70
2019-04-04T22:44:40.014Z,80.93
2019-04-04T22:47:10.420Z,78.87
2019-04-04T22:49:40.829Z,86.93
2019-04-04T22:52:11.215Z,93.92
2019-04-04T22:54:41.645Z,75.23
2019-04-04T22:57:12.171Z,80.07
2019-04-04T22:59:42.729Z,84.00
2019-04-04T23:02:13.156Z,75.77
2019-04-04T23:04:43.617Z,80.63
2019-04-04T23:07:14.024Z,73.33
2019-04-04T23:09:44.446Z,84.40
2019-04-04T23:12:14.834Z,77.97
2019-04-04T23:14:48.385Z,88.47
2019-04-04T23:17:17.274Z,78.60
2019-04-04T23:19:47.748Z,87.97
2019-04-04T23:22:18.179Z,86.10
2019-04-04T23:24:48.609Z,81.23
2019-04-04T23:27:19.078Z,77.17
2019-04-04T23:29:49.436Z,80.20
2019-04-04T23:32:19.885Z,82.80
2019-04-04T23:34:50.247Z,90.43
2019-04-04T23:37:20.712Z,83.63
2019-04-04T23:39:51.169Z,85.70
2019-04-04T23:42:21.567Z,86.10
2019-04-04T23:45:00.866Z,85.17
2019-04-04T23:47:24.007Z,83.43
2019-04-04T23:49:58.378Z,88.27
2019-04-04T23:52:28.775Z,85.30
2019-04-04T23:54:59.205Z,89.93
2019-04-04T23:57:29.598Z,79.70
2019-04-04T23:59:59.983Z,78.37
